sensor_id;sensor_type;location;lat;lon;timestamp;P1;durP1;ratioP1;P2;durP2;ratioP2
4355;SDS011;64374;51.482;7.408;2023-04-25T00:00:30;13.93;;;5.00;;
4355;SDS011;64374;51.482;7.408;2023-04-25T00:02:58;6.77;;;4.80;;
4355;SDS011;64374;51.482;7.408;2023-04-25T00:05:27;10.77;;;5.33;;
4355;SDS011;64374;51.482;7.408;2023-04-25T00:08:05;9.43;;;4.33;;
4355;SDS011;64374;51.482;7.408;2023-04-25T00:10:34;11.60;;;5.10;;
4355;SDS011;64374;51.482;7.408;2023-04-25T00:13:02;10.50;;;4.90;;
4355;SDS011;64374;51.482;7.408;2023-04-25T00:15:31;8.93;;;4.43;;
4355;SDS011;64374;51.482;7.408;2023-04-25T00:18:00;14.23;;;5.47;;
4355;SDS011;64374;51.482;7.408;2023-04-25T00:20:28;11.73;;;4.33;;
4355;SDS011;64374;51.482;7.408;2023-04-25T00:22:57;15.00;;;5.20;;
4355;SDS011;64374;51.482;7.408;2023-04-25T00:25:30;14.00;;;5.87;;
4355;SDS011;64374;51.482;7.408;2023-04-25T00:28:00;22.67;;;6.50;;
4355;SDS011;64374;51.482;7.408;2023-04-25T00:30:28;16.87;;;6.87;;
4355;SDS011;64374;51.482;7.408;2023-04-25T00:32:57;13.03;;;5.60;;
4355;SDS011;64374;51.482;7.408;2023-04-25T00:35:25;16.20;;;5.70;;
4355;SDS011;64374;51.482;7.408;2023-04-25T00:37:55;14.53;;;5.73;;
4355;SDS011;64374;51.482;7.408;2023-04-25T00:40:23;8.07;;;5.33;;
4355;SDS011;64374;51.482;7.408;2023-04-25T00:42:54;12.53;;;7.00;;
4355;SDS011;64374;51.482;7.408;2023-04-25T00:45:22;13.23;;;5.37;;
4355;SDS011;64374;51.482;7.408;2023-04-25T00:47:56;13.67;;;6.20;;
4355;SDS011;64374;51.482;7.408;2023-04-25T00:50:25;14.53;;;5.60;;
4355;SDS011;64374;51.482;7.408;2023-04-25T00:52:53;9.17;;;5.77;;
4355;SDS011;64374;51.482;7.408;2023-04-25T00:55:22;14.63;;;6.37;;
4355;SDS011;64374;51.482;7.408;2023-04-25T00:57:52;10.30;;;6.00;;
4355;SDS011;64374;51.482;7.408;2023-04-25T01:00:22;13.40;;;5.50;;
4355;SDS011;64374;51.482;7.408;2023-04-25T01:02:50;11.10;;;6.77;;
4355;SDS011;64374;51.482;7.408;2023-04-25T01:05:19;6.40;;;4.57;;
4355;SDS011;64374;51.482;7.408;2023-04-25T01:07:49;17.33;;;6.20;;
4355;SDS011;64374;51.482;7.408;2023-04-25T01:10:17;7.83;;;4.70;;
4355;SDS011;64374;51.482;7.408;2023-04-25T01:12:46;14.43;;;5.57;;
4355;SDS011;64374;51.482;7.408;2023-04-25T01:15:16;10.43;;;4.93;;
4355;SDS011;64374;51.482;7.408;2023-04-25T01:17:45;14.30;;;5.60;;
4355;SDS011;64374;51.482;7.408;2023-04-25T01:20:16;8.53;;;5.67;;
4355;SDS011;64374;51.482;7.408;2023-04-25T01:22:45;18.03;;;5.13;;
4355;SDS011;64374;51.482;7.408;2023-04-25T01:25:16;11.37;;;5.80;;
4355;SDS011;64374;51.482;7.408;2023-04-25T01:27:45;14.43;;;6.17;;
4355;SDS011;64374;51.482;7.408;2023-04-25T01:30:14;14.80;;;6.63;;
4355;SDS011;64374;51.482;7.408;2023-04-25T01:32:43;10.70;;;6.60;;
4355;SDS011;64374;51.482;7.408;2023-04-25T01:35:11;15.57;;;5.77;;
4355;SDS011;64374;51.482;7.408;2023-04-25T01:37:40;16.73;;;6.93;;
4355;SDS011;64374;51.482;7.408;2023-04-25T01:40:13;10.17;;;5.93;;
4355;SDS011;64374;51.482;7.408;2023-04-25T01:42:42;12.37;;;5.80;;
4355;SDS011;64374;51.482;7.408;2023-04-25T01:45:12;11.30;;;6.53;;
4355;SDS011;64374;51.482;7.408;2023-04-25T01:47:40;12.73;;;7.10;;
4355;SDS011;64374;51.482;7.408;2023-04-25T01:50:10;11.80;;;7.00;;
4355;SDS011;64374;51.482;7.408;2023-04-25T01:52:41;9.10;;;5.80;;
4355;SDS011;64374;51.482;7.408;2023-04-25T01:55:13;11.10;;;6.47;;
4355;SDS011;64374;51.482;7.408;2023-04-25T01:57:56;11.80;;;6.50;;
4355;SDS011;64374;51.482;7.408;2023-04-25T02:00:42;9.63;;;5.17;;
4355;SDS011;64374;51.482;7.408;2023-04-25T02:03:10;13.07;;;6.50;;
4355;SDS011;64374;51.482;7.408;2023-04-25T02:05:39;16.63;;;6.23;;
4355;SDS011;64374;51.482;7.408;2023-04-25T02:08:11;12.07;;;6.60;;
4355;SDS011;64374;51.482;7.408;2023-04-25T02:10:40;11.07;;;6.70;;
4355;SDS011;64374;51.482;7.408;2023-04-25T02:13:14;10.73;;;6.73;;
4355;SDS011;64374;51.482;7.408;2023-04-25T02:16:18;11.13;;;6.10;;
4355;SDS011;64374;51.482;7.408;2023-04-25T02:18:49;10.93;;;6.50;;
4355;SDS011;64374;51.482;7.408;2023-04-25T02:21:20;13.37;;;7.00;;
4355;SDS011;64374;51.482;7.408;2023-04-25T02:23:48;11.93;;;7.67;;
4355;SDS011;64374;51.482;7.408;2023-04-25T02:26:20;12.73;;;6.83;;
4355;SDS011;64374;51.482;7.408;2023-04-25T02:28:51;13.13;;;7.10;;
4355;SDS011;64374;51.482;7.408;2023-04-25T02:31:20;13.47;;;7.83;;
4355;SDS011;64374;51.482;7.408;2023-04-25T02:33:51;15.30;;;8.50;;
4355;SDS011;64374;51.482;7.408;2023-04-25T02:36:22;12.93;;;8.80;;
4355;SDS011;64374;51.482;7.408;2023-04-25T02:38:53;17.50;;;7.70;;
4355;SDS011;64374;51.482;7.408;2023-04-25T02:41:23;16.13;;;8.23;;
4355;SDS011;64374;51.482;7.408;2023-04-25T02:43:53;16.50;;;9.70;;
4355;SDS011;64374;51.482;7.408;2023-04-25T02:46:22;21.07;;;10.03;;
4355;SDS011;64374;51.482;7.408;2023-04-25T02:49:04;16.67;;;9.17;;
4355;SDS011;64374;51.482;7.408;2023-04-25T02:51:34;13.87;;;9.20;;
4355;SDS011;64374;51.482;7.408;2023-04-25T02:54:03;23.20;;;9.03;;
4355;SDS011;64374;51.482;7.408;2023-04-25T02:56:39;19.47;;;9.40;;
4355;SDS011;64374;51.482;7.408;2023-04-25T02:59:13;14.60;;;8.73;;
4355;SDS011;64374;51.482;7.408;2023-04-25T03:01:41;11.13;;;7.50;;
4355;SDS011;64374;51.482;7.408;2023-04-25T03:04:10;16.53;;;8.10;;
4355;SDS011;64374;51.482;7.408;2023-04-25T03:06:38;15.13;;;7.90;;
4355;SDS011;64374;51.482;7.408;2023-04-25T03:09:07;14.00;;;7.80;;
4355;SDS011;64374;51.482;7.408;2023-04-25T03:11:36;12.60;;;7.60;;
4355;SDS011;64374;51.482;7.408;2023-04-25T03:14:08;18.47;;;7.70;;
4355;SDS011;64374;51.482;7.408;2023-04-25T03:16:36;13.60;;;6.17;;
4355;SDS011;64374;51.482;7.408;2023-04-25T03:19:04;15.50;;;7.67;;
4355;SDS011;64374;51.482;7.408;2023-04-25T03:21:34;13.47;;;7.10;;
4355;SDS011;64374;51.482;7.408;2023-04-25T03:24:03;14.40;;;5.50;;
4355;SDS011;64374;51.482;7.408;2023-04-25T03:26:32;13.20;;;6.67;;
4355;SDS011;64374;51.482;7.408;2023-04-25T03:29:01;18.00;;;6.43;;
4355;SDS011;64374;51.482;7.408;2023-04-25T03:31:31;17.10;;;7.20;;
4355;SDS011;64374;51.482;7.408;2023-04-25T03:34:00;12.07;;;5.67;;
4355;SDS011;64374;51.482;7.408;2023-04-25T03:36:28;12.30;;;6.30;;
4355;SDS011;64374;51.482;7.408;2023-04-25T03:38:57;26.67;;;6.90;;
4355;SDS011;64374;51.482;7.408;2023-04-25T03:41:30;15.53;;;6.60;;
4355;SDS011;64374;51.482;7.408;2023-04-25T03:44:03;12.27;;;5.20;;
4355;SDS011;64374;51.482;7.408;2023-04-25T03:46:33;16.30;;;6.90;;
4355;SDS011;64374;51.482;7.408;2023-04-25T03:49:02;14.73;;;6.70;;
4355;SDS011;64374;51.482;7.408;2023-04-25T03:51:50;15.47;;;5.90;;
4355;SDS011;64374;51.482;7.408;2023-04-25T03:54:19;14.43;;;6.60;;
4355;SDS011;64374;51.482;7.408;2023-04-25T03:57:13;11.87;;;5.90;;
4355;SDS011;64374;51.482;7.408;2023-04-25T03:59:42;10.73;;;6.10;;
4355;SDS011;64374;51.482;7.408;2023-04-25T04:02:14;12.00;;;6.00;;
4355;SDS011;64374;51.482;7.408;2023-04-25T04:04:44;13.23;;;5.37;;
4355;SDS011;64374;51.482;7.408;2023-04-25T04:07:13;9.83;;;5.87;;
4355;SDS011;64374;51.482;7.408;2023-04-25T04:09:45;11.37;;;6.67;;
4355;SDS011;64374;51.482;7.408;2023-04-25T04:12:21;12.53;;;5.40;;
4355;SDS011;64374;51.482;7.408;2023-04-25T04:14:49;12.80;;;6.17;;
4355;SDS011;64374;51.482;7.408;2023-04-25T04:17:21;8.57;;;3.90;;
4355;SDS011;64374;51.482;7.408;2023-04-25T04:19:50;5.63;;;1.57;;
4355;SDS011;64374;51.482;7.408;2023-04-25T04:22:20;5.20;;;1.90;;
4355;SDS011;64374;51.482;7.408;2023-04-25T04:24:50;2.90;;;1.50;;
4355;SDS011;64374;51.482;7.408;2023-04-25T04:27:40;3.53;;;1.83;;
4355;SDS011;64374;51.482;7.408;2023-04-25T04:30:21;2.37;;;2.17;;
4355;SDS011;64374;51.482;7.408;2023-04-25T04:32:58;2.67;;;1.50;;
4355;SDS011;64374;51.482;7.408;2023-04-25T04:35:28;4.23;;;1.90;;
4355;SDS011;64374;51.482;7.408;2023-04-25T04:37:57;6.37;;;3.03;;
4355;SDS011;64374;51.482;7.408;2023-04-25T04:40:30;4.30;;;2.10;;
4355;SDS011;64374;51.482;7.408;2023-04-25T04:43:10;8.50;;;2.77;;
4355;SDS011;64374;51.482;7.408;2023-04-25T04:46:00;14.43;;;2.47;;
4355;SDS011;64374;51.482;7.408;2023-04-25T04:48:40;4.47;;;2.20;;
4355;SDS011;64374;51.482;7.408;2023-04-25T04:51:32;6.57;;;2.40;;
4355;SDS011;64374;51.482;7.408;2023-04-25T04:54:21;5.13;;;3.00;;
4355;SDS011;64374;51.482;7.408;2023-04-25T04:57:14;9.27;;;2.80;;
4355;SDS011;64374;51.482;7.408;2023-04-25T05:00:01;5.77;;;2.80;;
4355;SDS011;64374;51.482;7.408;2023-04-25T05:02:55;5.43;;;2.80;;
4355;SDS011;64374;51.482;7.408;2023-04-25T05:05:48;7.90;;;3.50;;
4355;SDS011;64374;51.482;7.408;2023-04-25T05:08:42;10.70;;;3.53;;
4355;SDS011;64374;51.482;7.408;2023-04-25T05:11:25;10.77;;;3.10;;
4355;SDS011;64374;51.482;7.408;2023-04-25T05:14:04;7.00;;;2.70;;
4355;SDS011;64374;51.482;7.408;2023-04-25T05:16:51;10.40;;;3.50;;
4355;SDS011;64374;51.482;7.408;2023-04-25T05:19:42;7.17;;;2.80;;
4355;SDS011;64374;51.482;7.408;2023-04-25T05:22:35;8.40;;;3.10;;
4355;SDS011;64374;51.482;7.408;2023-04-25T05:25:25;13.90;;;3.03;;
4355;SDS011;64374;51.482;7.408;2023-04-25T05:27:59;14.43;;;3.10;;
4355;SDS011;64374;51.482;7.408;2023-04-25T05:30:47;9.97;;;3.20;;
4355;SDS011;64374;51.482;7.408;2023-04-25T05:33:19;5.33;;;2.90;;
4355;SDS011;64374;51.482;7.408;2023-04-25T05:35:49;9.43;;;3.50;;
4355;SDS011;64374;51.482;7.408;2023-04-25T05:38:19;12.50;;;3.47;;
4355;SDS011;64374;51.482;7.408;2023-04-25T05:41:06;28.63;;;15.03;;
4355;SDS011;64374;51.482;7.408;2023-04-25T05:43:53;14.77;;;4.17;;
4355;SDS011;64374;51.482;7.408;2023-04-25T05:47:04;10.87;;;2.60;;
4355;SDS011;64374;51.482;7.408;2023-04-25T05:49:52;13.00;;;4.13;;
4355;SDS011;64374;51.482;7.408;2023-04-25T05:52:57;7.13;;;3.47;;
4355;SDS011;64374;51.482;7.408;2023-04-25T05:55:33;12.43;;;4.00;;
4355;SDS011;64374;51.482;7.408;2023-04-25T05:58:16;13.20;;;5.60;;
4355;SDS011;64374;51.482;7.408;2023-04-25T06:00:44;11.13;;;4.03;;
4355;SDS011;64374;51.482;7.408;2023-04-25T06:03:13;9.77;;;4.97;;
4355;SDS011;64374;51.482;7.408;2023-04-25T06:05:47;12.70;;;5.33;;
4355;SDS011;64374;51.482;7.408;2023-04-25T06:08:16;10.30;;;4.93;;
4355;SDS011;64374;51.482;7.408;2023-04-25T06:10:46;14.30;;;5.90;;
4355;SDS011;64374;51.482;7.408;2023-04-25T06:13:14;18.03;;;6.00;;
4355;SDS011;64374;51.482;7.408;2023-04-25T06:15:43;15.10;;;6.13;;
4355;SDS011;64374;51.482;7.408;2023-04-25T06:18:11;14.27;;;5.60;;
4355;SDS011;64374;51.482;7.408;2023-04-25T06:20:40;13.40;;;6.93;;
4355;SDS011;64374;51.482;7.408;2023-04-25T06:23:11;17.20;;;5.73;;
4355;SDS011;64374;51.482;7.408;2023-04-25T06:26:01;13.80;;;6.77;;
4355;SDS011;64374;51.482;7.408;2023-04-25T06:28:32;15.10;;;6.70;;
4355;SDS011;64374;51.482;7.408;2023-04-25T06:31:00;15.00;;;7.00;;
4355;SDS011;64374;51.482;7.408;2023-04-25T06:33:29;13.20;;;6.07;;
4355;SDS011;64374;51.482;7.408;2023-04-25T06:35:58;16.27;;;6.00;;
4355;SDS011;64374;51.482;7.408;2023-04-25T06:38:30;15.33;;;6.13;;
4355;SDS011;64374;51.482;7.408;2023-04-25T06:40:58;21.63;;;7.07;;
4355;SDS011;64374;51.482;7.408;2023-04-25T06:43:33;10.03;;;6.00;;
4355;SDS011;64374;51.482;7.408;2023-04-25T06:46:04;20.10;;;6.37;;
4355;SDS011;64374;51.482;7.408;2023-04-25T06:48:40;21.43;;;6.40;;
4355;SDS011;64374;51.482;7.408;2023-04-25T06:51:10;18.00;;;5.70;;
4355;SDS011;64374;51.482;7.408;2023-04-25T06:53:41;16.63;;;5.57;;
4355;SDS011;64374;51.482;7.408;2023-04-25T06:56:17;16.63;;;6.43;;
4355;SDS011;64374;51.482;7.408;2023-04-25T06:58:57;23.10;;;5.20;;
4355;SDS011;64374;51.482;7.408;2023-04-25T07:01:37;19.90;;;6.00;;
4355;SDS011;64374;51.482;7.408;2023-04-25T07:04:15;17.03;;;5.37;;
4355;SDS011;64374;51.482;7.408;2023-04-25T07:06:54;14.60;;;4.40;;
4355;SDS011;64374;51.482;7.408;2023-04-25T07:09:30;20.07;;;5.10;;
4355;SDS011;64374;51.482;7.408;2023-04-25T07:12:02;19.97;;;4.70;;
4355;SDS011;64374;51.482;7.408;2023-04-25T07:14:31;7.53;;;3.97;;
4355;SDS011;64374;51.482;7.408;2023-04-25T07:16:59;11.20;;;4.00;;
4355;SDS011;64374;51.482;7.408;2023-04-25T07:19:31;10.57;;;4.00;;
4355;SDS011;64374;51.482;7.408;2023-04-25T07:22:02;15.83;;;4.93;;
4355;SDS011;64374;51.482;7.408;2023-04-25T07:24:38;18.50;;;4.47;;
4355;SDS011;64374;51.482;7.408;2023-04-25T07:27:10;17.50;;;4.07;;
4355;SDS011;64374;51.482;7.408;2023-04-25T07:29:46;16.00;;;3.97;;
4355;SDS011;64374;51.482;7.408;2023-04-25T07:32:15;11.97;;;4.23;;
4355;SDS011;64374;51.482;7.408;2023-04-25T07:34:43;13.20;;;4.50;;
4355;SDS011;64374;51.482;7.408;2023-04-25T07:37:13;19.13;;;4.10;;
4355;SDS011;64374;51.482;7.408;2023-04-25T07:39:57;14.83;;;6.60;;
4355;SDS011;64374;51.482;7.408;2023-04-25T07:42:26;19.77;;;3.70;;
4355;SDS011;64374;51.482;7.408;2023-04-25T07:44:55;27.20;;;4.83;;
4355;SDS011;64374;51.482;7.408;2023-04-25T07:47:25;9.00;;;3.47;;
4355;SDS011;64374;51.482;7.408;2023-04-25T07:49:54;14.70;;;3.90;;
4355;SDS011;64374;51.482;7.408;2023-04-25T07:52:23;14.90;;;3.53;;
4355;SDS011;64374;51.482;7.408;2023-04-25T07:55:00;14.80;;;3.80;;
4355;SDS011;64374;51.482;7.408;2023-04-25T07:57:41;11.23;;;4.00;;
4355;SDS011;64374;51.482;7.408;2023-04-25T08:00:11;12.03;;;3.67;;
4355;SDS011;64374;51.482;7.408;2023-04-25T08:02:47;19.83;;;4.33;;
4355;SDS011;64374;51.482;7.408;2023-04-25T08:05:18;19.40;;;4.80;;
4355;SDS011;64374;51.482;7.408;2023-04-25T08:07:55;12.67;;;4.23;;
4355;SDS011;64374;51.482;7.408;2023-04-25T08:10:26;9.93;;;3.37;;
4355;SDS011;64374;51.482;7.408;2023-04-25T08:12:58;19.00;;;4.33;;
4355;SDS011;64374;51.482;7.408;2023-04-25T08:15:28;12.13;;;4.87;;
4355;SDS011;64374;51.482;7.408;2023-04-25T08:17:57;16.83;;;3.80;;
4355;SDS011;64374;51.482;7.408;2023-04-25T08:20:26;14.33;;;4.00;;
4355;SDS011;64374;51.482;7.408;2023-04-25T08:22:56;18.97;;;3.93;;
4355;SDS011;64374;51.482;7.408;2023-04-25T08:25:38;12.73;;;4.23;;
4355;SDS011;64374;51.482;7.408;2023-04-25T08:28:10;14.37;;;3.80;;
4355;SDS011;64374;51.482;7.408;2023-04-25T08:30:40;10.20;;;3.10;;
4355;SDS011;64374;51.482;7.408;2023-04-25T08:33:11;13.90;;;3.67;;
4355;SDS011;64374;51.482;7.408;2023-04-25T08:36:00;15.23;;;3.53;;
4355;SDS011;64374;51.482;7.408;2023-04-25T08:38:30;13.90;;;2.93;;
4355;SDS011;64374;51.482;7.408;2023-04-25T08:40:59;8.27;;;3.30;;
4355;SDS011;64374;51.482;7.408;2023-04-25T08:43:30;7.53;;;2.83;;
4355;SDS011;64374;51.482;7.408;2023-04-25T08:45:59;13.57;;;3.40;;
4355;SDS011;64374;51.482;7.408;2023-04-25T08:48:48;8.37;;;2.67;;
4355;SDS011;64374;51.482;7.408;2023-04-25T08:51:22;6.83;;;2.53;;
4355;SDS011;64374;51.482;7.408;2023-04-25T08:53:55;4.63;;;2.60;;
4355;SDS011;64374;51.482;7.408;2023-04-25T08:56:49;7.33;;;2.83;;
4355;SDS011;64374;51.482;7.408;2023-04-25T08:59:18;14.67;;;3.20;;
4355;SDS011;64374;51.482;7.408;2023-04-25T09:01:49;9.83;;;3.00;;
4355;SDS011;64374;51.482;7.408;2023-04-25T09:04:20;11.00;;;2.87;;
4355;SDS011;64374;51.482;7.408;2023-04-25T09:06:49;15.20;;;3.33;;
4355;SDS011;64374;51.482;7.408;2023-04-25T09:09:19;9.80;;;2.53;;
4355;SDS011;64374;51.482;7.408;2023-04-25T09:11:50;7.90;;;2.30;;
4355;SDS011;64374;51.482;7.408;2023-04-25T09:14:25;8.60;;;2.00;;
4355;SDS011;64374;51.482;7.408;2023-04-25T09:17:04;11.10;;;2.27;;
4355;SDS011;64374;51.482;7.408;2023-04-25T09:19:43;15.67;;;2.50;;
4355;SDS011;64374;51.482;7.408;2023-04-25T09:22:20;13.90;;;3.50;;
4355;SDS011;64374;51.482;7.408;2023-04-25T09:24:51;5.57;;;1.60;;
4355;SDS011;64374;51.482;7.408;2023-04-25T09:27:25;6.07;;;2.17;;
4355;SDS011;64374;51.482;7.408;2023-04-25T09:30:05;10.80;;;2.03;;
4355;SDS011;64374;51.482;7.408;2023-04-25T09:33:03;9.07;;;2.43;;
4355;SDS011;64374;51.482;7.408;2023-04-25T09:35:37;5.80;;;2.13;;
4355;SDS011;64374;51.482;7.408;2023-04-25T09:38:13;4.27;;;1.50;;
4355;SDS011;64374;51.482;7.408;2023-04-25T09:40:58;6.93;;;2.13;;
4355;SDS011;64374;51.482;7.408;2023-04-25T09:43:38;6.07;;;1.90;;
4355;SDS011;64374;51.482;7.408;2023-04-25T09:46:32;7.30;;;2.60;;
4355;SDS011;64374;51.482;7.408;2023-04-25T09:49:10;7.20;;;2.23;;
4355;SDS011;64374;51.482;7.408;2023-04-25T09:51:54;8.53;;;2.97;;
4355;SDS011;64374;51.482;7.408;2023-04-25T09:54:34;13.37;;;2.53;;
4355;SDS011;64374;51.482;7.408;2023-04-25T09:57:13;8.40;;;2.60;;
4355;SDS011;64374;51.482;7.408;2023-04-25T09:59:44;12.80;;;1.97;;
4355;SDS011;64374;51.482;7.408;2023-04-25T10:02:17;10.83;;;2.20;;
4355;SDS011;64374;51.482;7.408;2023-04-25T10:04:50;6.60;;;2.27;;
4355;SDS011;64374;51.482;7.408;2023-04-25T10:07:38;5.93;;;2.90;;
4355;SDS011;64374;51.482;7.408;2023-04-25T10:10:13;8.97;;;2.37;;
4355;SDS011;64374;51.482;7.408;2023-04-25T10:12:42;11.83;;;2.47;;
4355;SDS011;64374;51.482;7.408;2023-04-25T10:15:11;8.50;;;2.53;;
4355;SDS011;64374;51.482;7.408;2023-04-25T10:17:42;8.87;;;1.80;;
4355;SDS011;64374;51.482;7.408;2023-04-25T10:20:12;4.57;;;2.10;;
4355;SDS011;64374;51.482;7.408;2023-04-25T10:22:41;7.00;;;1.80;;
4355;SDS011;64374;51.482;7.408;2023-04-25T10:25:12;12.70;;;1.90;;
4355;SDS011;64374;51.482;7.408;2023-04-25T10:27:42;11.07;;;1.90;;
4355;SDS011;64374;51.482;7.408;2023-04-25T10:30:13;4.30;;;1.40;;
4355;SDS011;64374;51.482;7.408;2023-04-25T10:32:44;6.93;;;2.80;;
4355;SDS011;64374;51.482;7.408;2023-04-25T10:35:17;4.60;;;1.87;;
4355;SDS011;64374;51.482;7.408;2023-04-25T10:38:03;15.63;;;3.53;;
4355;SDS011;64374;51.482;7.408;2023-04-25T10:40:33;11.37;;;2.03;;
4355;SDS011;64374;51.482;7.408;2023-04-25T10:46:12;6.93;;;2.50;;
4355;SDS011;64374;51.482;7.408;2023-04-25T10:48:48;4.50;;;2.00;;
4355;SDS011;64374;51.482;7.408;2023-04-25T10:51:22;5.63;;;1.90;;
4355;SDS011;64374;51.482;7.408;2023-04-25T10:54:05;11.13;;;2.30;;
4355;SDS011;64374;51.482;7.408;2023-04-25T10:56:36;7.90;;;2.40;;
4355;SDS011;64374;51.482;7.408;2023-04-25T10:59:07;3.20;;;1.47;;
4355;SDS011;64374;51.482;7.408;2023-04-25T11:01:39;11.53;;;1.93;;
4355;SDS011;64374;51.482;7.408;2023-04-25T11:04:23;7.00;;;1.87;;
4355;SDS011;64374;51.482;7.408;2023-04-25T11:07:00;11.50;;;2.10;;
4355;SDS011;64374;51.482;7.408;2023-04-25T11:09:35;6.90;;;1.80;;
4355;SDS011;64374;51.482;7.408;2023-04-25T11:12:07;5.30;;;2.00;;
4355;SDS011;64374;51.482;7.408;2023-04-25T11:14:38;7.30;;;1.80;;
4355;SDS011;64374;51.482;7.408;2023-04-25T11:17:08;13.13;;;1.77;;
4355;SDS011;64374;51.482;7.408;2023-04-25T11:19:40;4.10;;;1.20;;
4355;SDS011;64374;51.482;7.408;2023-04-25T11:22:09;9.10;;;2.17;;
4355;SDS011;64374;51.482;7.408;2023-04-25T11:24:38;3.17;;;1.43;;
4355;SDS011;64374;51.482;7.408;2023-04-25T11:27:07;12.27;;;3.20;;
4355;SDS011;64374;51.482;7.408;2023-04-25T11:29:36;4.20;;;1.90;;
4355;SDS011;64374;51.482;7.408;2023-04-25T11:32:05;5.60;;;2.07;;
4355;SDS011;64374;51.482;7.408;2023-04-25T11:34:33;5.33;;;2.10;;
4355;SDS011;64374;51.482;7.408;2023-04-25T11:37:04;4.57;;;2.27;;
4355;SDS011;64374;51.482;7.408;2023-04-25T11:39:35;3.87;;;1.77;;
4355;SDS011;64374;51.482;7.408;2023-04-25T11:42:04;3.73;;;1.50;;
4355;SDS011;64374;51.482;7.408;2023-04-25T11:44:39;6.10;;;1.87;;
4355;SDS011;64374;51.482;7.408;2023-04-25T11:47:10;4.67;;;1.63;;
4355;SDS011;64374;51.482;7.408;2023-04-25T11:49:39;5.57;;;1.47;;
4355;SDS011;64374;51.482;7.408;2023-04-25T11:52:08;12.00;;;1.90;;
4355;SDS011;64374;51.482;7.408;2023-04-25T11:54:37;2.43;;;1.20;;
4355;SDS011;64374;51.482;7.408;2023-04-25T11:57:07;3.30;;;1.40;;
4355;SDS011;64374;51.482;7.408;2023-04-25T11:59:35;3.53;;;1.40;;
4355;SDS011;64374;51.482;7.408;2023-04-25T12:02:03;2.80;;;1.30;;
4355;SDS011;64374;51.482;7.408;2023-04-25T12:04:33;2.83;;;0.83;;
4355;SDS011;64374;51.482;7.408;2023-04-25T12:07:02;5.23;;;1.50;;
4355;SDS011;64374;51.482;7.408;2023-04-25T12:09:32;4.47;;;1.70;;
4355;SDS011;64374;51.482;7.408;2023-04-25T12:12:01;3.83;;;1.00;;
4355;SDS011;64374;51.482;7.408;2023-04-25T12:14:31;3.33;;;1.37;;
4355;SDS011;64374;51.482;7.408;2023-04-25T12:17:02;3.93;;;1.73;;
4355;SDS011;64374;51.482;7.408;2023-04-25T12:19:36;4.43;;;1.23;;
4355;SDS011;64374;51.482;7.408;2023-04-25T12:22:18;2.70;;;0.90;;
4355;SDS011;64374;51.482;7.408;2023-04-25T12:24:49;4.73;;;1.20;;
4355;SDS011;64374;51.482;7.408;2023-04-25T12:27:20;3.30;;;1.10;;
4355;SDS011;64374;51.482;7.408;2023-04-25T12:29:58;5.73;;;1.33;;
4355;SDS011;64374;51.482;7.408;2023-04-25T12:32:29;1.90;;;1.00;;
4355;SDS011;64374;51.482;7.408;2023-04-25T12:34:59;4.90;;;1.23;;
4355;SDS011;64374;51.482;7.408;2023-04-25T12:37:28;6.00;;;1.20;;
4355;SDS011;64374;51.482;7.408;2023-04-25T12:42:34;3.97;;;1.33;;
4355;SDS011;64374;51.482;7.408;2023-04-25T12:45:04;2.73;;;1.17;;
4355;SDS011;64374;51.482;7.408;2023-04-25T12:47:33;5.17;;;2.20;;
4355;SDS011;64374;51.482;7.408;2023-04-25T12:50:02;2.40;;;1.10;;
4355;SDS011;64374;51.482;7.408;2023-04-25T12:52:32;3.73;;;1.40;;
4355;SDS011;64374;51.482;7.408;2023-04-25T12:55:00;2.70;;;1.40;;
4355;SDS011;64374;51.482;7.408;2023-04-25T12:57:30;6.90;;;1.47;;
4355;SDS011;64374;51.482;7.408;2023-04-25T12:59:58;3.43;;;1.57;;
4355;SDS011;64374;51.482;7.408;2023-04-25T13:02:29;2.77;;;1.17;;
4355;SDS011;64374;51.482;7.408;2023-04-25T13:04:58;3.03;;;1.03;;
4355;SDS011;64374;51.482;7.408;2023-04-25T13:07:26;2.47;;;1.10;;
4355;SDS011;64374;51.482;7.408;2023-04-25T13:09:55;3.63;;;1.40;;
4355;SDS011;64374;51.482;7.408;2023-04-25T13:12:24;2.73;;;1.20;;
4355;SDS011;64374;51.482;7.408;2023-04-25T13:14:53;5.63;;;1.50;;
4355;SDS011;64374;51.482;7.408;2023-04-25T13:17:22;2.77;;;1.27;;
4355;SDS011;64374;51.482;7.408;2023-04-25T13:19:54;4.20;;;1.70;;
4355;SDS011;64374;51.482;7.408;2023-04-25T13:22:22;6.77;;;1.20;;
4355;SDS011;64374;51.482;7.408;2023-04-25T13:24:51;2.13;;;1.20;;
4355;SDS011;64374;51.482;7.408;2023-04-25T13:27:19;2.23;;;1.07;;
4355;SDS011;64374;51.482;7.408;2023-04-25T13:29:49;2.93;;;1.00;;
4355;SDS011;64374;51.482;7.408;2023-04-25T13:32:18;4.60;;;1.30;;
4355;SDS011;64374;51.482;7.408;2023-04-25T13:34:46;3.60;;;1.10;;
4355;SDS011;64374;51.482;7.408;2023-04-25T13:37:16;6.43;;;1.50;;
4355;SDS011;64374;51.482;7.408;2023-04-25T13:39:44;3.53;;;1.20;;
4355;SDS011;64374;51.482;7.408;2023-04-25T13:42:13;5.67;;;1.10;;
4355;SDS011;64374;51.482;7.408;2023-04-25T13:44:44;3.70;;;1.00;;
4355;SDS011;64374;51.482;7.408;2023-04-25T13:47:16;3.10;;;1.07;;
4355;SDS011;64374;51.482;7.408;2023-04-25T13:49:44;2.30;;;1.13;;
4355;SDS011;64374;51.482;7.408;2023-04-25T13:52:13;2.77;;;1.20;;
4355;SDS011;64374;51.482;7.408;2023-04-25T13:54:42;3.87;;;1.20;;
4355;SDS011;64374;51.482;7.408;2023-04-25T13:57:11;4.70;;;1.33;;
4355;SDS011;64374;51.482;7.408;2023-04-25T13:59:40;5.53;;;1.60;;
4355;SDS011;64374;51.482;7.408;2023-04-25T14:02:08;1.93;;;1.20;;
4355;SDS011;64374;51.482;7.408;2023-04-25T14:04:37;3.90;;;1.40;;
4355;SDS011;64374;51.482;7.408;2023-04-25T14:07:07;5.13;;;1.20;;
4355;SDS011;64374;51.482;7.408;2023-04-25T14:09:37;2.40;;;1.50;;
4355;SDS011;64374;51.482;7.408;2023-04-25T14:12:07;2.93;;;1.13;;
4355;SDS011;64374;51.482;7.408;2023-04-25T14:14:35;3.03;;;1.67;;
4355;SDS011;64374;51.482;7.408;2023-04-25T14:17:03;4.07;;;1.50;;
4355;SDS011;64374;51.482;7.408;2023-04-25T14:19:34;3.57;;;1.30;;
4355;SDS011;64374;51.482;7.408;2023-04-25T14:22:04;5.03;;;1.40;;
4355;SDS011;64374;51.482;7.408;2023-04-25T14:24:32;6.17;;;1.33;;
4355;SDS011;64374;51.482;7.408;2023-04-25T14:27:01;8.00;;;1.10;;
4355;SDS011;64374;51.482;7.408;2023-04-25T14:29:31;6.47;;;1.20;;
4355;SDS011;64374;51.482;7.408;2023-04-25T14:31:59;5.00;;;1.27;;
4355;SDS011;64374;51.482;7.408;2023-04-25T14:34:27;3.57;;;1.13;;
4355;SDS011;64374;51.482;7.408;2023-04-25T14:36:55;5.80;;;1.20;;
4355;SDS011;64374;51.482;7.408;2023-04-25T14:39:24;3.50;;;1.50;;
4355;SDS011;64374;51.482;7.408;2023-04-25T14:41:52;2.57;;;1.30;;
4355;SDS011;64374;51.482;7.408;2023-04-25T14:44:21;4.63;;;1.80;;
4355;SDS011;64374;51.482;7.408;2023-04-25T14:46:51;4.03;;;1.60;;
4355;SDS011;64374;51.482;7.408;2023-04-25T14:49:20;6.90;;;1.80;;
4355;SDS011;64374;51.482;7.408;2023-04-25T14:51:48;8.23;;;1.47;;
4355;SDS011;64374;51.482;7.408;2023-04-25T14:54:20;8.03;;;1.90;;
4355;SDS011;64374;51.482;7.408;2023-04-25T14:56:48;5.43;;;1.50;;
4355;SDS011;64374;51.482;7.408;2023-04-25T14:59:18;3.47;;;1.17;;
4355;SDS011;64374;51.482;7.408;2023-04-25T15:01:47;4.23;;;1.40;;
4355;SDS011;64374;51.482;7.408;2023-04-25T15:04:17;5.13;;;1.80;;
4355;SDS011;64374;51.482;7.408;2023-04-25T15:06:46;9.50;;;1.40;;
4355;SDS011;64374;51.482;7.408;2023-04-25T15:09:15;4.13;;;1.20;;
4355;SDS011;64374;51.482;7.408;2023-04-25T15:11:45;3.30;;;1.37;;
4355;SDS011;64374;51.482;7.408;2023-04-25T15:14:14;3.13;;;1.67;;
4355;SDS011;64374;51.482;7.408;2023-04-25T15:16:42;2.60;;;1.13;;
4355;SDS011;64374;51.482;7.408;2023-04-25T15:19:11;6.67;;;1.47;;
4355;SDS011;64374;51.482;7.408;2023-04-25T15:21:41;4.90;;;1.27;;
4355;SDS011;64374;51.482;7.408;2023-04-25T15:24:09;4.30;;;1.00;;
4355;SDS011;64374;51.482;7.408;2023-04-25T15:26:38;2.17;;;1.13;;
4355;SDS011;64374;51.482;7.408;2023-04-25T15:29:09;4.50;;;1.43;;
4355;SDS011;64374;51.482;7.408;2023-04-25T15:31:39;2.97;;;1.20;;
4355;SDS011;64374;51.482;7.408;2023-04-25T15:34:09;6.23;;;1.33;;